Main page
METAR-TAF:

METAR-TAF

Airports :

King Abdulaziz Air Base

Dhahran, Saudi Arabia

latitude: 26-16N, longitude: 050-09E, elevation: 26 m

Current weather observation

The report was made 19 minutes ago, at 14:00 UTC
Wind 13 kt from the North/Northeast
Temperature 41°C
Humidity 11%
Pressure 994 hPa
Visibility 10 km or more
no clouds below 1500 m and no cumulonimbus

METAR: OEDR 181400Z 02013KT CAVOK 41/05 Q0994 NOSIG

Time: 17:19 (14:19 UTC)

Forecast

The report was made 6 hours and 19 minutes ago, at 08:00 UTC
Forecast valid from 18 at 12 UTC to 19 at 18 UTC
Wind 14 kt from the North/Northeast
Visibility 10 km or more
no clouds below 1500 m and no cumulonimbus
Becoming
from 18 at 18 UTC to 18 at 20 UTC
Wind 6 kt from the West

TAF: OEDR 180800Z 1812/1918 02014KT CAVOK BECMG 1818/1820 28006KT

Weather observations and forecasts of more than 4000 airports (METAR and TAF reports).

The available stations are represented by yellow and red dots on the map.

Hover mouse over dot to see the name of the station.

Then click to see weather observations and forecasts.

To change the map : click on the green buttons with a black cross to zoom in, on the green button with a dash to zoom out, or on the green arrows for adjacent maps.


METAR-TAF: